Time;durP1;ratioP1;P1;durP2;ratioP2;P2;SDS_P1;SDS_P2;PMS_P1;PMS_P2;Temp;Humidity;BMP_temperature;BMP_pressure;BME280_temperature;BME280_humidity;BME280_pressure;Samples;Min_cycle;Max_cycle;Signal;HPM_P1;HPM_P2
2020/12/02 00:00:50;;;;;;;75.87;32.40;;;;;;;1.01;76.76;101586.88;4963555;58;1138464;-88
2020/12/02 00:05:57;;;;;;;80.27;34.87;;;;;;;0.97;76.72;101582.61;4969021;58;1138259;-88
2020/12/02 00:11:08;;;;;;;85.20;34.30;;;;;;;0.97;76.75;101585.66;4949371;58;1138653;-88
2020/12/02 00:16:23;;;;;;;88.70;35.27;;;;;;;0.94;76.93;101590.92;4947969;58;1138972;-87
2020/12/02 00:21:32;;;;;;;86.60;33.63;;;;;;;0.93;76.96;101599.63;4935592;58;1139243;-87
2020/12/02 00:26:38;;;;;;;78.37;34.90;;;;;;;0.92;76.93;101596.16;4984782;58;1138250;-88
2020/12/02 00:31:44;;;;;;;81.17;32.63;;;;;;;0.89;77.08;101592.80;4955163;58;1138713;-88
2020/12/02 00:36:49;;;;;;;70.50;32.77;;;;;;;0.94;77.20;101593.53;4975217;58;1138252;-87
2020/12/02 00:41:56;;;;;;;71.30;30.32;;;;;;;0.90;77.13;101589.30;4935794;58;1138406;-88
2020/12/02 00:47:02;;;;;;;79.27;33.45;;;;;;;0.83;77.23;101582.05;4888932;59;1138591;-88
2020/12/02 00:52:09;;;;;;;84.57;33.63;;;;;;;0.85;77.18;101600.25;4986828;58;1138712;-88
2020/12/02 00:57:22;;;;;;;75.63;33.40;;;;;;;0.74;77.12;101592.66;4908242;58;1138300;-88
2020/12/02 01:02:46;;;;;;;79.05;33.38;;;;;;;0.68;77.09;101588.86;4956658;58;1138690;-88
2020/12/02 01:07:52;;;;;;;78.37;33.30;;;;;;;0.63;77.09;101595.45;4962535;58;1138381;-88
2020/12/02 01:12:58;;;;;;;74.77;29.95;;;;;;;0.60;77.22;101592.08;4955220;58;1138400;-88
2020/12/02 01:18:10;;;;;;;86.32;35.20;;;;;;;0.55;77.29;101582.19;5004169;58;1138907;-88
2020/12/02 01:23:17;;;;;;;84.07;34.27;;;;;;;0.52;77.30;101584.84;4931944;58;1138545;-88
2020/12/02 01:28:29;;;;;;;78.03;32.20;;;;;;;0.43;77.50;101581.12;4864235;59;1138523;-88
2020/12/02 01:33:35;;;;;;;87.03;34.40;;;;;;;0.43;77.49;101587.19;4984890;58;1138411;-88
2020/12/02 01:38:42;;;;;;;75.17;33.33;;;;;;;0.43;77.67;101581.12;4966344;58;1138215;-88
2020/12/02 01:43:50;;;;;;;79.93;33.00;;;;;;;0.42;77.61;101576.80;5031555;58;1136282;-88
2020/12/02 01:49:09;;;;;;;86.67;36.07;;;;;;;0.42;77.77;101571.60;4991947;58;1138502;-87
2020/12/02 01:54:36;;;;;;;95.57;39.63;;;;;;;0.37;77.74;101570.82;4937390;58;1138594;-87
2020/12/02 02:00:01;;;;;;;100.60;40.23;;;;;;;0.33;78.05;101575.22;4972316;58;1138226;-88
2020/12/02 02:05:22;;;;;;;78.37;34.40;;;;;;;0.32;78.19;101567.84;4946838;58;1140523;-88
2020/12/02 02:10:32;;;;;;;92.60;39.97;;;;;;;0.27;78.38;101571.45;4984862;58;1138417;-88
2020/12/02 02:15:57;;;;;;;93.10;38.47;;;;;;;0.24;78.37;101568.45;4956054;58;1138372;-87
2020/12/02 02:21:09;;;;;;;98.53;41.50;;;;;;;0.25;78.35;101570.17;4963126;58;1138713;-87
2020/12/02 02:26:39;;;;;;;83.50;36.70;;;;;;;0.24;78.39;101564.98;4938841;58;1138258;-87
2020/12/02 02:32:02;;;;;;;95.37;38.50;;;;;;;0.26;78.47;101567.98;4956216;58;1138228;-87
2020/12/02 02:37:11;;;;;;;75.23;31.93;;;;;;;0.25;78.47;101570.17;4945338;58;1148184;-88
2020/12/02 02:42:44;;;;;;;82.60;35.65;;;;;;;0.14;78.92;101572.56;4949849;58;1138340;-87
2020/12/02 02:47:49;;;;;;;86.80;38.83;;;;;;;0.13;78.70;101576.90;4963804;57;1138592;-88
2020/12/02 02:52:55;;;;;;;92.83;37.37;;;;;;;0.08;79.13;101573.52;5018717;58;1138849;-88
2020/12/02 02:58:01;;;;;;;87.13;37.57;;;;;;;0.09;79.01;101571.77;4967064;57;1138353;-87
2020/12/02 03:03:09;;;;;;;91.07;38.77;;;;;;;0.11;78.92;101569.56;4966261;58;1138544;-87
2020/12/02 03:08:17;;;;;;;89.30;37.67;;;;;;;0.10;79.01;101557.44;4973702;58;1138478;-87
2020/12/02 03:13:45;;;;;;;85.77;36.80;;;;;;;0.09;79.04;101560.92;5000707;58;1138470;-87
2020/12/02 03:18:52;;;;;;;82.27;35.57;;;;;;;0.03;79.23;101555.81;5013331;57;1138462;-88
2020/12/02 03:23:58;;;;;;;78.60;35.00;;;;;;;0.01;79.27;101548.48;4964302;58;1138466;-88
2020/12/02 03:29:06;;;;;;;136.93;49.37;;;;;;;-0.02;79.50;101556.36;4992081;58;1138339;-87
2020/12/02 03:34:15;;;;;;;119.90;50.03;;;;;;;-0.04;79.49;101555.53;4926131;58;1143146;-87
2020/12/02 03:39:21;;;;;;;88.07;40.03;;;;;;;-0.04;79.42;101556.83;4937400;58;1142514;-88
2020/12/02 03:44:26;;;;;;;93.40;38.83;;;;;;;-0.09;79.77;101557.34;4923461;58;1140424;-87
2020/12/02 03:49:32;;;;;;;83.90;38.63;;;;;;;-0.13;79.50;101557.83;4951419;58;1140642;-87
2020/12/02 03:54:37;;;;;;;95.50;39.35;;;;;;;-0.13;79.72;101556.53;4977871;58;1140455;-87
2020/12/02 03:59:43;;;;;;;90.47;39.23;;;;;;;-0.13;79.72;101559.56;4989243;57;1140397;-87
2020/12/02 04:04:48;;;;;;;109.03;49.83;;;;;;;-0.16;79.59;101557.91;4965235;57;1140353;-87
2020/12/02 04:09:54;;;;;;;96.60;40.30;;;;;;;-0.21;79.91;101549.31;4977379;57;1142674;-87
2020/12/02 04:15:01;;;;;;;81.22;36.50;;;;;;;-0.33;79.84;101535.23;5026362;58;1140479;-88
2020/12/02 04:20:08;;;;;;;89.85;38.17;;;;;;;-0.30;79.97;101548.14;4935850;58;1140634;-88
2020/12/02 04:25:14;;;;;;;87.67;37.13;;;;;;;-0.33;79.71;101551.27;4903952;59;1140407;-88
2020/12/02 04:30:19;;;;;;;87.67;40.37;;;;;;;-0.33;79.72;101561.66;4978615;57;1140783;-87
2020/12/02 04:35:25;;;;;;;83.00;38.17;;;;;;;-0.37;79.82;101559.11;4935940;58;1140493;-87
2020/12/02 04:40:36;;;;;;;92.23;42.20;;;;;;;-0.40;79.91;101559.14;4973638;58;1140494;-87
2020/12/02 04:45:41;;;;;;;96.90;43.33;;;;;;;-0.43;79.83;101566.98;4964264;58;1140500;-87
2020/12/02 04:50:47;;;;;;;99.17;42.77;;;;;;;-0.45;79.98;101564.84;4991738;57;1140519;-87
2020/12/02 04:55:56;;;;;;;101.90;43.30;;;;;;;-0.46;79.96;101570.09;4976186;58;1140406;-87
2020/12/02 05:01:30;;;;;;;100.67;41.60;;;;;;;-0.50;79.90;101564.08;4968697;57;1142768;-87
2020/12/02 05:06:51;;;;;;;101.40;43.60;;;;;;;-0.52;79.84;101574.94;4967248;58;1142455;-87
2020/12/02 05:12:07;;;;;;;102.10;44.83;;;;;;;-0.55;80.15;101572.81;4973788;57;1142594;-87
2020/12/02 05:17:25;;;;;;;109.03;45.50;;;;;;;-0.60;80.28;101578.07;5033745;57;1142461;-88
2020/12/02 05:22:35;;;;;;;100.77;45.17;;;;;;;-0.66;80.37;101569.09;4946767;58;1142455;-87
2020/12/02 05:27:42;;;;;;;108.23;48.60;;;;;;;-0.75;80.26;101573.95;4970454;58;1142638;-87
2020/12/02 05:33:15;;;;;;;107.90;45.80;;;;;;;-0.80;80.48;101564.53;4947708;58;1142435;-87
2020/12/02 05:38:28;;;;;;;104.47;47.38;;;;;;;-0.89;80.47;101562.91;4973049;57;1142701;-87
2020/12/02 05:43:49;;;;;;;105.53;46.47;;;;;;;-0.87;80.44;101563.75;5036627;57;1142670;-87
2020/12/02 05:48:55;;;;;;;100.37;42.40;;;;;;;-0.84;80.37;101574.54;4958548;57;1142682;-87
2020/12/02 05:54:17;;;;;;;109.53;46.20;;;;;;;-0.85;80.30;101574.12;5003092;58;1142353;-88
2020/12/02 05:59:22;;;;;;;104.60;44.03;;;;;;;-0.83;80.31;101581.45;4935001;58;1142465;-87
2020/12/02 06:04:29;;;;;;;88.97;38.47;;;;;;;-0.83;80.29;101574.96;4951666;58;1142435;-87
2020/12/02 06:09:48;;;;;;;105.93;45.83;;;;;;;-0.81;80.31;101574.50;4909355;58;1140327;-87
2020/12/02 06:14:54;;;;;;;105.27;45.00;;;;;;;-0.84;80.23;101567.61;4916044;58;1142946;-87
2020/12/02 06:20:00;;;;;;;92.63;43.07;;;;;;;-0.84;80.21;101578.00;4943257;58;1142910;-87
2020/12/02 06:25:09;;;;;;;103.22;44.55;;;;;;;-0.86;80.26;101569.36;4928167;58;1140852;-87
2020/12/02 06:30:21;;;;;;;99.20;44.98;;;;;;;-0.89;80.31;101569.84;4884659;58;1143452;-87
2020/12/02 06:35:26;;;;;;;90.97;38.10;;;;;;;-0.90;80.35;101573.31;4922285;58;1140718;-87
2020/12/02 06:40:32;;;;;;;99.47;43.33;;;;;;;-0.98;80.54;101575.17;4922413;58;1140377;-88
2020/12/02 06:45:38;;;;;;;98.97;45.03;;;;;;;-0.99;80.60;101577.34;4918244;58;1140760;-89
2020/12/02 06:50:45;;;;;;;101.20;45.27;;;;;;;-0.98;80.43;101578.63;4922589;58;1140372;-89
2020/12/02 06:55:59;;;;;;;110.60;44.17;;;;;;;-0.97;80.47;101578.19;4946468;58;1142546;-89
2020/12/02 07:01:07;;;;;;;100.02;44.10;;;;;;;-1.06;80.76;101567.47;4896521;59;1142580;-90
2020/12/02 07:06:29;;;;;;;104.04;44.68;;;;;;;-1.11;80.56;101574.03;4917309;58;1143183;-89
2020/12/02 07:11:40;;;;;;;106.33;43.37;;;;;;;-1.12;80.78;101580.11;4880006;58;1142845;-90
2020/12/02 07:16:49;;;;;;;101.70;43.10;;;;;;;-1.15;80.66;101575.38;4896977;59;1142535;-89
2020/12/02 07:21:58;;;;;;;70.13;28.23;;;;;;;-1.16;80.72;101576.26;4776112;59;1142508;-90
2020/12/02 07:27:06;;;;;;;73.13;31.50;;;;;;;-1.17;80.69;101568.91;4805365;60;1140392;-89
2020/12/02 07:32:21;;;;;;;84.90;38.07;;;;;;;-1.19;80.80;101557.69;4861184;58;1140572;-90
2020/12/02 07:37:27;;;;;;;90.13;39.97;;;;;;;-1.19;80.78;101566.77;4845893;59;1140621;-90
2020/12/02 07:42:39;;;;;;;75.00;33.47;;;;;;;-1.20;80.68;101558.56;4915060;58;1140392;-90
2020/12/02 07:47:52;;;;;;;91.28;41.33;;;;;;;-1.21;80.69;101560.73;4862158;59;1140684;-91
2020/12/02 07:53:20;;;;;;;100.50;44.70;;;;;;;-1.19;80.56;101559.42;4956169;57;1140424;-90
2020/12/02 07:58:36;;;;;;;85.83;38.03;;;;;;;-1.20;80.72;101560.30;4936732;58;1142659;-91
2020/12/02 08:03:43;;;;;;;107.17;40.05;;;;;;;-1.17;80.65;101548.14;4752976;60;1140380;-90
2020/12/02 08:08:47;;;;;;;71.53;30.27;;;;;;;-1.17;80.65;101548.14;4835954;59;1142545;-90
2020/12/02 08:13:58;;;;;;;80.43;33.40;;;;;;;-1.14;80.18;101541.63;4804147;59;1140802;-90
2020/12/02 08:19:09;;;;;;;90.30;38.33;;;;;;;-1.17;80.14;101542.95;4837810;59;1140922;-90
2020/12/02 08:24:37;;;;;;;87.13;38.17;;;;;;;-1.13;80.27;101538.16;4861162;59;1140389;-90
2020/12/02 08:29:51;;;;;;;83.30;35.60;;;;;;;-1.12;80.16;101536.41;4832196;59;1140788;-90
2020/12/02 08:34:56;;;;;;;82.77;38.17;;;;;;;-1.13;80.26;101526.47;4833051;59;1140604;-89
2020/12/02 08:40:29;;;;;;;84.62;37.40;;;;;;;-1.13;80.06;101532.96;4851133;59;1140800;-90
2020/12/02 08:45:35;;;;;;;87.97;37.17;;;;;;;-1.16;80.07;101536.89;4840236;59;1140522;-90
2020/12/02 08:50:43;;;;;;;79.97;33.48;;;;;;;-1.13;80.08;101539.89;4837298;59;1140803;-89
2020/12/02 08:55:50;;;;;;;87.97;37.97;;;;;;;-1.13;79.91;101538.16;4759391;60;1140688;-90
2020/12/02 09:00:55;;;;;;;86.23;36.93;;;;;;;-1.09;80.14;101533.34;4966396;58;1140341;-90
2020/12/02 09:06:01;;;;;;;78.20;31.93;;;;;;;-1.08;79.92;101531.61;4936899;58;1140520;-88
2020/12/02 09:11:07;;;;;;;99.07;43.40;;;;;;;-1.07;80.01;101535.45;4960001;58;1140926;-90
2020/12/02 09:16:13;;;;;;;94.37;40.63;;;;;;;-1.02;80.21;101528.05;4965294;57;1140817;-88
2020/12/02 09:21:18;;;;;;;82.12;34.75;;;;;;;-0.99;79.85;101528.87;4945665;58;1140350;-90
2020/12/02 09:26:29;;;;;;;55.90;24.07;;;;;;;-0.98;79.52;101525.40;4948832;58;1140782;-90
2020/12/02 09:31:36;;;;;;;87.43;38.63;;;;;;;-1.04;79.57;101524.61;4901542;58;1140326;-88
2020/12/02 09:36:48;;;;;;;61.87;27.03;;;;;;;-1.01;79.86;101517.65;4905516;58;1140591;-90
2020/12/02 09:42:23;;;;;;;60.13;24.83;;;;;;;-1.01;79.13;101520.69;4940046;58;1141039;-89
2020/12/02 09:47:31;;;;;;;82.97;31.30;;;;;;;-0.99;79.37;101508.10;4898096;58;1140917;-89
2020/12/02 09:52:50;;;;;;;54.37;21.90;;;;;;;-1.01;79.23;101503.81;4944093;58;1140611;-90
2020/12/02 09:57:56;;;;;;;80.77;32.13;;;;;;;-1.02;79.08;101496.89;4915233;58;1140376;-89
2020/12/02 10:03:39;;;;;;;84.63;34.93;;;;;;;-0.95;79.31;101502.44;4895946;58;1140675;-89
2020/12/02 10:09:16;;;;;;;88.10;37.73;;;;;;;-0.94;79.09;101495.92;4873297;58;1140654;-89
2020/12/02 10:14:38;;;;;;;87.85;36.33;;;;;;;-0.93;79.08;101483.80;4934085;57;1140654;-89
2020/12/02 10:20:06;;;;;;;72.50;26.57;;;;;;;-0.96;78.87;101490.33;4978761;58;1140484;-90
2020/12/02 10:25:42;;;;;;;150.35;54.88;;;;;;;-0.98;78.87;101488.19;4956508;58;1140624;-89
2020/12/02 10:30:58;;;;;;;66.97;25.43;;;;;;;-0.94;78.83;101486.84;4975636;58;1142671;-90
2020/12/02 10:36:04;;;;;;;85.20;35.37;;;;;;;-0.91;78.77;101479.41;4950142;58;1140741;-89
2020/12/02 10:41:52;;;;;;;81.67;36.20;;;;;;;-0.89;78.92;101478.95;4938269;58;1140503;-89
2020/12/02 10:47:31;;;;;;;81.73;37.67;;;;;;;-0.81;79.09;101471.48;4970379;58;1140763;-89
2020/12/02 10:52:39;;;;;;;72.83;32.07;;;;;;;-0.80;78.57;101456.31;4722521;59;1141002;-89
2020/12/02 10:57:45;;;;;;;82.40;38.73;;;;;;;-0.77;78.59;101452.81;4717531;60;1140572;-89
2020/12/02 11:03:15;;;;;;;65.97;29.17;;;;;;;-0.74;78.77;101446.25;4723414;60;1140673;-89
2020/12/02 11:08:46;;;;;;;91.10;39.53;;;;;;;-0.72;78.47;101434.95;4714994;61;1140510;-88
2020/12/02 11:14:27;;;;;;;97.17;42.30;;;;;;;-0.69;78.30;101432.75;4728796;61;1141113;-89
2020/12/02 11:19:54;;;;;;;55.23;24.53;;;;;;;-0.74;77.86;101424.17;4736757;60;1140915;-89
2020/12/02 11:25:54;;;;;;;71.97;32.07;;;;;;;-0.72;78.20;101415.48;4572904;62;1141497;-89
2020/12/02 11:31:04;;;;;;;86.13;38.10;;;;;;;-0.76;77.93;101407.31;4357469;65;1140463;-89
2020/12/02 11:36:17;;;;;;;75.73;33.97;;;;;;;-0.73;78.45;101405.11;4531078;64;1140859;-89
2020/12/02 11:41:42;;;;;;;69.75;33.60;;;;;;;-0.77;77.83;101394.38;4519384;64;1141188;-89
2020/12/02 11:46:52;;;;;;;68.47;30.93;;;;;;;-0.78;77.93;101386.17;4535036;64;1140501;-90
2020/12/02 11:52:11;;;;;;;96.27;40.57;;;;;;;-0.76;77.74;101390.43;4539790;64;1140621;-90
2020/12/02 11:57:16;;;;;;;79.72;34.10;;;;;;;-0.73;78.02;101388.23;4403204;64;1140883;-89
2020/12/02 12:02:47;;;;;;;83.03;34.78;;;;;;;-0.74;78.02;101378.72;4582501;61;1140830;-89
2020/12/02 12:08:28;;;;;;;93.20;40.53;;;;;;;-0.72;77.92;101379.11;4677875;62;1140783;-89
2020/12/02 12:13:53;;;;;;;78.93;34.07;;;;;;;-0.74;78.09;101369.19;4687692;62;1140760;-89
2020/12/02 12:19:09;;;;;;;61.87;25.77;;;;;;;-0.72;77.89;101366.56;4656583;62;1140740;-90
2020/12/02 12:24:18;;;;;;;79.50;37.43;;;;;;;-0.77;77.57;101355.42;4698705;62;1140816;-89
2020/12/02 12:29:23;;;;;;;62.90;28.07;;;;;;;-0.81;78.05;101355.05;4662356;62;1140869;-87
2020/12/02 12:34:51;;;;;;;75.27;35.60;;;;;;;-0.85;77.45;101364.63;4784981;58;1140620;-88
2020/12/02 12:40:02;;;;;;;79.53;37.63;;;;;;;-0.92;77.47;101353.95;4906145;58;1140501;-88
2020/12/02 12:45:16;;;;;;;82.22;37.26;;;;;;;-0.93;77.79;101353.97;4905259;58;1141798;-87
2020/12/02 12:50:24;;;;;;;82.35;34.35;;;;;;;-0.94;77.92;101347.06;4885664;58;1140813;-87
2020/12/02 12:55:29;;;;;;;58.67;25.73;;;;;;;-1.05;77.77;101349.82;4883385;58;1140668;-88
2020/12/02 13:00:36;;;;;;;79.37;32.43;;;;;;;-1.11;77.96;101334.37;4992628;57;1138287;-83
2020/12/02 13:05:44;;;;;;;54.50;23.80;;;;;;;-1.17;78.06;101334.02;5043999;57;1140601;-83
2020/12/02 13:10:57;;;;;;;67.17;28.95;;;;;;;-1.25;78.12;101328.55;5031291;57;1140452;-83
2020/12/02 13:16:16;;;;;;;111.55;48.42;;;;;;;-1.31;78.31;101324.30;5027423;57;1140527;-82
2020/12/02 13:21:42;;;;;;;126.55;58.23;;;;;;;-1.30;78.37;101331.20;4971802;58;1142495;-83
2020/12/02 13:26:53;;;;;;;89.00;36.70;;;;;;;-1.26;78.64;101328.13;5027887;56;1142683;-83
2020/12/02 13:32:18;;;;;;;88.47;39.67;;;;;;;-1.26;78.51;101333.32;5024836;57;1140793;-83
2020/12/02 13:37:24;;;;;;;131.03;45.25;;;;;;;-1.33;78.61;101318.28;5042566;57;1140754;-83
2020/12/02 13:42:30;;;;;;;86.37;36.17;;;;;;;-1.31;78.56;101315.66;5027587;57;1142383;-83
2020/12/02 13:47:39;;;;;;;102.23;43.33;;;;;;;-1.34;78.31;101320.45;5031715;55;1140763;-84
2020/12/02 13:53:12;;;;;;;68.80;27.77;;;;;;;-1.37;78.38;101320.94;4992623;57;1142614;-82
2020/12/02 13:58:49;;;;;;;85.20;34.87;;;;;;;-1.44;78.79;101314.56;5037861;57;1140639;-83
2020/12/02 14:04:35;;;;;;;125.00;48.47;;;;;;;-1.46;78.92;101308.98;4978989;57;1140472;-83
2020/12/02 14:09:53;;;;;;;110.17;44.10;;;;;;;-1.50;79.02;101304.27;5010926;57;1142298;-83
2020/12/02 14:15:01;;;;;;;121.93;48.77;;;;;;;-1.49;79.41;101303.39;4909298;59;1142875;-83
2020/12/02 14:20:08;;;;;;;161.80;56.97;;;;;;;-1.51;79.55;101294.77;4851015;59;1142418;-83
2020/12/02 14:25:17;;;;;;;91.73;35.53;;;;;;;-1.51;79.81;101288.73;5061260;57;1142999;-83
2020/12/02 14:30:37;;;;;;;114.97;43.68;;;;;;;-1.50;79.83;101286.11;5019983;57;1140822;-84
2020/12/02 14:35:44;;;;;;;135.33;54.23;;;;;;;-1.49;79.73;101273.56;5084446;56;1142547;-83
2020/12/02 14:40:55;;;;;;;105.23;43.37;;;;;;;-1.44;79.76;101267.87;5022999;56;1142655;-84
2020/12/02 14:46:03;;;;;;;88.60;31.90;;;;;;;-1.39;79.62;101268.24;5042476;57;1142442;-86
2020/12/02 14:51:09;;;;;;;88.77;33.87;;;;;;;-1.50;79.53;101269.25;5028525;56;1140838;-85
2020/12/02 14:56:28;;;;;;;102.70;41.80;;;;;;;-1.49;79.62;101263.19;5053739;56;1140669;-86
2020/12/02 15:01:33;;;;;;;108.87;41.07;;;;;;;-1.53;79.74;101261.52;5026428;57;1142569;-86
2020/12/02 15:07:01;;;;;;;118.65;46.58;;;;;;;-1.52;79.77;101253.29;5051657;57;1142386;-86
2020/12/02 15:12:08;;;;;;;98.00;37.70;;;;;;;-1.51;79.78;101255.86;4996053;58;1142678;-86
2020/12/02 15:17:31;;;;;;;129.80;55.43;;;;;;;-1.51;79.74;101253.27;5052075;58;1140773;-86
2020/12/02 15:22:36;;;;;;;112.30;39.57;;;;;;;-1.46;79.83;101246.72;4886403;59;1142497;-86
2020/12/02 15:27:47;;;;;;;83.30;33.37;;;;;;;-1.51;79.57;101244.19;5008600;58;1142679;-86
2020/12/02 15:33:07;;;;;;;145.27;54.73;;;;;;;-1.53;79.68;101245.95;4921554;59;1140530;-86
2020/12/02 15:38:16;;;;;;;153.93;59.08;;;;;;;-1.48;79.66;101239.40;4891908;58;1148464;-86
2020/12/02 15:43:47;;;;;;;114.42;43.87;;;;;;;-1.44;79.45;101234.58;5007970;58;1142487;-87
2020/12/02 15:48:58;;;;;;;114.53;44.37;;;;;;;-1.44;79.02;101230.69;4915907;59;1142368;-86
2020/12/02 15:54:22;;;;;;;95.17;38.33;;;;;;;-1.44;78.86;101228.09;4905590;59;1142438;-86
2020/12/02 15:59:49;;;;;;;83.97;35.90;;;;;;;-1.44;78.86;101229.39;5024255;58;1140728;-85
2020/12/02 16:04:56;;;;;;;102.23;40.23;;;;;;;-1.39;78.87;101218.51;5090607;58;21106;-86
2020/12/02 16:10:06;;;;;;;73.07;32.10;;;;;;;-1.41;79.05;101218.97;4958919;58;1138453;-86
2020/12/02 16:15:18;;;;;;;70.70;29.87;;;;;;;-1.44;78.83;101209.94;5026353;57;1140501;-86
2020/12/02 16:20:29;;;;;;;89.20;39.83;;;;;;;-1.48;78.96;101210.42;5037825;57;1140514;-86
2020/12/02 16:25:35;;;;;;;67.97;29.90;;;;;;;-1.49;78.77;101210.01;5017460;57;1140867;-86
2020/12/02 16:30:42;;;;;;;62.10;25.57;;;;;;;-1.51;78.55;101207.02;5028239;57;1140623;-86
2020/12/02 16:35:48;;;;;;;78.90;30.73;;;;;;;-1.51;78.53;101203.98;5034283;57;1140381;-85
2020/12/02 16:40:55;;;;;;;98.93;41.30;;;;;;;-1.52;78.63;101200.97;5051072;57;1140290;-86
2020/12/02 16:46:25;;;;;;;74.10;32.43;;;;;;;-1.46;78.87;101201.32;4995521;58;1140351;-86
2020/12/02 16:52:05;;;;;;;78.42;31.75;;;;;;;-1.44;78.63;101199.56;4837456;59;1140419;-86
2020/12/02 16:57:20;;;;;;;98.00;39.07;;;;;;;-1.47;78.66;101200.91;4840181;59;1141431;-86
2020/12/02 17:02:37;;;;;;;338.70;90.53;;;;;;;-1.51;78.62;101198.80;5068653;57;1140286;-86
2020/12/02 17:07:46;;;;;;;82.37;35.73;;;;;;;-1.53;78.83;101198.44;5001499;57;1142439;-85
2020/12/02 17:13:33;;;;;;;68.43;29.00;;;;;;;-1.52;79.04;101194.48;4988431;57;1140521;-85
2020/12/02 17:19:15;;;;;;;76.03;31.83;;;;;;;-1.56;78.97;101190.27;4988082;57;1140452;-85
2020/12/02 17:24:49;;;;;;;84.80;29.37;;;;;;;-1.60;78.74;101192.48;5006803;58;1140546;-86
2020/12/02 17:30:02;;;;;;;;;;;;;;;-1.62;78.42;101187.76;4983011;57;1140390;-86
2020/12/02 17:35:47;;;;;;;72.97;29.83;;;;;;;-1.62;78.55;101181.72;4993382;57;973565;-86
2020/12/02 17:41:15;;;;;;;82.57;37.60;;;;;;;-1.61;78.49;101170.46;4981926;57;1138352;-85
2020/12/02 17:46:37;;;;;;;86.23;37.07;;;;;;;-1.58;78.61;101171.27;5005017;57;1140618;-86
2020/12/02 17:51:50;;;;;;;128.27;46.40;;;;;;;-1.58;78.93;101171.27;5085093;58;21268;-86
2020/12/02 17:56:58;;;;;;;113.13;48.33;;;;;;;-1.58;79.22;101169.97;4887860;59;1138726;-87
2020/12/02 18:02:11;;;;;;;115.37;50.77;;;;;;;-1.57;79.15;101169.09;4858394;58;1142478;-86
2020/12/02 18:07:27;;;;;;;100.22;46.70;;;;;;;-1.55;79.01;101158.25;4839217;58;1142716;-87
2020/12/02 18:13:09;;;;;;;69.22;28.07;;;;;;;-1.59;79.07;101146.66;4975262;56;1143289;-87
2020/12/02 18:18:31;;;;;;;71.97;32.97;;;;;;;-1.62;78.77;101147.56;4933317;57;1140493;-86
2020/12/02 18:24:01;;;;;;;77.93;34.50;;;;;;;-1.66;78.77;101151.08;4914946;58;1140665;-85
2020/12/02 18:29:36;;;;;;;55.13;21.93;;;;;;;-1.64;78.72;101154.95;4935449;58;1140863;-86
2020/12/02 18:34:55;;;;;;;222.77;63.80;;;;;;;-1.69;78.40;101143.38;4991999;56;1140992;-86
2020/12/02 18:40:14;;;;;;;133.47;46.83;;;;;;;-1.70;78.77;101135.19;5006795;56;1142951;-86
2020/12/02 18:45:26;;;;;;;116.05;50.67;;;;;;;-1.71;78.76;101133.91;5000436;57;1143028;-87
2020/12/02 18:50:32;;;;;;;85.60;38.07;;;;;;;-1.68;79.09;101145.53;5006633;56;1143192;-86
2020/12/02 18:55:40;;;;;;;80.63;35.67;;;;;;;-1.67;78.82;101135.11;5055157;56;1140991;-86
2020/12/02 19:00:53;;;;;;;122.53;46.40;;;;;;;-1.73;78.63;101124.86;5048076;56;1141199;-87
2020/12/02 19:05:58;;;;;;;98.10;38.67;;;;;;;-1.73;78.62;101120.97;5061113;56;1142743;-86
2020/12/02 19:11:17;;;;;;;81.80;35.43;;;;;;;-1.74;78.26;101122.29;5039792;56;1140611;-86
2020/12/02 19:17:14;;;;;;;60.55;26.93;;;;;;;-1.71;78.34;101130.88;4995155;57;1140857;-86
2020/12/02 19:22:55;;;;;;;73.40;32.00;;;;;;;-1.75;77.91;101136.13;5020793;57;1140519;-86
2020/12/02 19:28:40;;;;;;;68.60;29.03;;;;;;;-1.83;77.95;101129.33;4871971;59;1140863;-87
2020/12/02 19:34:18;;;;;;;67.80;29.27;;;;;;;-1.85;77.75;101123.78;4929151;59;1140737;-87
2020/12/02 19:39:43;;;;;;;70.37;32.10;;;;;;;-1.88;77.71;101124.69;4965222;58;1140651;-86
2020/12/02 19:45:26;;;;;;;64.20;28.77;;;;;;;-1.86;77.50;101129.84;4965835;58;1140871;-86
2020/12/02 19:50:32;;;;;;;76.90;32.67;;;;;;;-1.89;77.51;101111.31;4965409;57;1140875;-86
2020/12/02 19:55:37;;;;;;;36.57;16.17;;;;;;;-1.95;77.49;101120.91;4940001;58;1140621;-85
2020/12/02 20:00:49;;;;;;;77.00;31.57;;;;;;;-1.93;77.28;101112.67;4956503;58;1141076;-86
2020/12/02 20:06:08;;;;;;;67.67;29.73;;;;;;;-1.87;77.61;101111.28;5112306;56;1140985;-81
2020/12/02 20:11:36;;;;;;;50.67;21.67;;;;;;;-1.92;77.34;101106.61;5128525;56;1140786;-80
2020/12/02 20:17:07;;;;;;;70.60;29.40;;;;;;;-2.00;77.00;101098.98;5121028;56;1140686;-81
2020/12/02 20:22:34;;;;;;;77.43;34.20;;;;;;;-2.04;76.96;101090.83;5022846;57;1140739;-81
2020/12/02 20:27:57;;;;;;;82.20;34.40;;;;;;;-1.95;77.56;101084.19;4999276;57;1141012;-80
2020/12/02 20:33:02;;;;;;;64.20;27.93;;;;;;;-1.91;76.95;101066.41;5019261;56;1140855;-81
2020/12/02 20:38:18;;;;;;;60.03;28.20;;;;;;;-1.98;77.04;101075.16;4991245;57;1140944;-80
2020/12/02 20:43:25;;;;;;;61.87;28.83;;;;;;;-1.99;77.03;101086.44;4988830;57;1140664;-81
2020/12/02 20:48:37;;;;;;;67.82;29.37;;;;;;;-2.08;76.87;101078.80;4952080;57;1140814;-80
2020/12/02 20:53:47;;;;;;;67.67;30.67;;;;;;;-2.10;77.10;101074.52;4953032;56;1140619;-81
2020/12/02 20:59:14;;;;;;;59.77;25.77;;;;;;;-2.10;77.23;101079.70;4852296;58;1140861;-80
2020/12/02 21:04:20;;;;;;;59.50;22.00;;;;;;;-2.14;77.09;101068.08;4904607;58;1140744;-80
2020/12/02 21:09:28;;;;;;;46.67;22.47;;;;;;;-2.17;77.21;101056.50;4929141;58;1141031;-82
2020/12/02 21:14:33;;;;;;;65.17;26.33;;;;;;;-2.22;77.30;101052.27;5085719;57;1140821;-80
2020/12/02 21:20:24;;;;;;;64.50;30.27;;;;;;;-2.21;77.39;101038.44;5105106;56;1140702;-81
2020/12/02 21:25:40;;;;;;;63.75;29.55;;;;;;;-2.18;77.35;101015.06;5137788;56;1140879;-80
2020/12/02 21:31:10;;;;;;;61.93;25.07;;;;;;;-2.18;77.31;101008.16;5134854;56;1140876;-80
2020/12/02 21:36:41;;;;;;;65.73;30.87;;;;;;;-2.15;77.16;101004.66;5142146;56;1140909;-79
2020/12/02 21:41:49;;;;;;;80.23;31.97;;;;;;;-2.14;77.18;100992.12;5136080;56;1141033;-80
2020/12/02 21:47:35;;;;;;;70.13;32.30;;;;;;;-2.10;77.22;100998.93;5132193;56;1140967;-80
2020/12/02 21:53:11;;;;;;;72.35;33.00;;;;;;;-2.07;77.18;100986.36;5041491;56;1141084;-80
2020/12/02 21:58:18;;;;;;;52.07;23.50;;;;;;;-2.05;77.26;100992.38;5126568;55;1140440;-80
2020/12/02 22:04:05;;;;;;;71.67;31.80;;;;;;;-2.21;77.13;100979.70;5159791;56;1140537;-81
2020/12/02 22:09:15;;;;;;;68.37;30.50;;;;;;;-2.24;77.36;100978.89;4801240;59;1140376;-80
2020/12/02 22:14:29;;;;;;;66.67;30.70;;;;;;;-2.27;77.35;100990.59;4966738;57;1140479;-79
2020/12/02 22:19:46;;;;;;;67.63;28.57;;;;;;;-2.35;77.45;100988.59;4982265;57;1140424;-80
2020/12/02 22:25:02;;;;;;;49.80;19.23;;;;;;;-2.35;77.45;100988.59;4959162;57;1140540;-80
2020/12/02 22:30:09;;;;;;;72.20;30.70;;;;;;;-2.34;77.72;101013.63;4931946;57;1140427;-80
2020/12/02 22:35:40;;;;;;;77.07;36.03;;;;;;;-2.29;77.82;101015.70;4879912;58;1140508;-80
2020/12/02 22:41:12;;;;;;;64.58;26.42;;;;;;;-2.22;77.62;101012.97;4918550;58;1140358;-80
2020/12/02 22:46:40;;;;;;;81.53;32.83;;;;;;;-2.19;77.43;101001.26;4881288;59;1140430;-81
2020/12/02 22:51:50;;;;;;;58.33;25.63;;;;;;;-2.18;77.41;101000.82;4880204;58;1140651;-80
2020/12/02 22:57:00;;;;;;;74.15;31.95;;;;;;;-2.24;77.07;100989.25;4773136;60;1140604;-80
2020/12/02 23:02:08;;;;;;;61.67;28.93;;;;;;;-2.32;77.31;100978.19;4820884;58;1140815;-80
2020/12/02 23:07:21;;;;;;;81.95;35.48;;;;;;;-2.29;77.44;100973.78;4827866;58;1140825;-79
2020/12/02 23:12:33;;;;;;;58.10;26.60;;;;;;;-2.28;77.59;100958.66;4937740;58;1140573;-80
2020/12/02 23:18:01;;;;;;;63.30;25.77;;;;;;;-2.32;77.26;100949.26;4775608;60;1140848;-79
2020/12/02 23:23:07;;;;;;;65.67;29.53;;;;;;;-2.39;77.29;100938.58;4840124;60;1138408;-80